Terminal Aerodrome Forecast
Issued by NWS

Home | Current Version | Previous Version | Text Only | Print | Product List | Glossary On
Versions: 1 2 3 4 5 6 7 8 9 10 11 12 13 14 15 16 17 18 19 20 21 22 23 24 25 26 27 28 29 30 31 32 33 34 35 36
000
FTUS44 KHGX 201120
TAFUTS
TAF
KUTS 201120Z 2012/2112 15004KT P6SM SCT020 BKN250
      TEMPO 2012/2015 BKN020
     FM201500 16006KT P6SM SCT030 SCT250
     FM202100 14006KT P6SM VCTS BKN040CB
      TEMPO 2022/2101 VRB20G30KT 2SM TSRA BKN030CB
     FM210200 VRB03KT P6SM BKN060 BKN250=

USA.gov is the U.S. government's official web portal to all federal, state and local government web resources and services.